createdAt,value
2022-10-23T00:01:34.559Z,0.60
2022-10-23T00:04:05.816Z,0.50
2022-10-23T00:06:35.179Z,0.50
2022-10-23T00:09:05.020Z,0.50
2022-10-23T00:11:33.310Z,0.57
2022-10-23T00:14:03.775Z,0.60
2022-10-23T00:16:31.712Z,0.60
2022-10-23T00:18:59.207Z,0.50
2022-10-23T00:21:28.152Z,0.50
2022-10-23T00:23:55.681Z,0.50
2022-10-23T00:26:23.223Z,0.70
2022-10-23T00:28:53.574Z,0.52
2022-10-23T00:31:22.195Z,0.60
2022-10-23T00:33:51.054Z,0.60
2022-10-23T00:36:20.537Z,0.60
2022-10-23T00:38:50.607Z,0.70
2022-10-23T00:41:21.844Z,0.70
2022-10-23T00:44:05.401Z,0.60
2022-10-23T00:46:33.540Z,0.63
2022-10-23T00:49:02.158Z,0.63
2022-10-23T00:51:34.693Z,0.70
2022-10-23T00:56:55.972Z,0.50
2022-10-23T00:59:23.697Z,0.68
2022-10-23T01:01:51.476Z,0.50
2022-10-23T01:04:19.832Z,0.57
2022-10-23T01:06:54.283Z,0.60
2022-10-23T01:09:30.018Z,0.55
2022-10-23T01:12:01.770Z,0.60
2022-10-23T01:14:34.187Z,0.60
2022-10-23T01:17:06.539Z,0.60
2022-10-23T01:19:47.523Z,0.60
2022-10-23T01:22:38.618Z,0.52
2022-10-23T01:25:23.843Z,0.57
2022-10-23T01:27:57.225Z,0.50
2022-10-23T01:30:24.771Z,0.57
2022-10-23T01:32:56.050Z,0.60
2022-10-23T01:35:28.699Z,0.60
2022-10-23T01:38:04.366Z,0.55
2022-10-23T01:40:38.379Z,0.60
2022-10-23T01:43:14.036Z,0.60
2022-10-23T01:45:44.349Z,0.50
2022-10-23T01:48:16.607Z,0.60
2022-10-23T01:50:45.964Z,0.70
2022-10-23T01:53:13.723Z,0.70
2022-10-23T01:55:43.672Z,0.60
2022-10-23T01:58:14.432Z,0.70
2022-10-23T02:00:45.179Z,0.80
2022-10-23T02:03:14.996Z,0.70
2022-10-23T02:05:43.759Z,0.60
2022-10-23T02:08:11.826Z,0.60
2022-10-23T02:10:45.558Z,0.70
2022-10-23T02:13:20.171Z,0.70
2022-10-23T02:15:51.248Z,0.60
2022-10-23T02:18:31.636Z,0.50
2022-10-23T02:21:05.080Z,0.70
2022-10-23T02:23:36.771Z,0.60
2022-10-23T02:26:08.827Z,0.60
2022-10-23T02:28:42.329Z,0.60
2022-10-23T02:31:11.998Z,0.60
2022-10-23T02:33:39.750Z,0.60
2022-10-23T02:36:07.883Z,0.60
2022-10-23T02:38:40.389Z,0.55
2022-10-23T02:41:25.754Z,0.70
2022-10-23T02:44:09.353Z,0.60
2022-10-23T02:46:47.488Z,0.60
2022-10-23T02:49:22.626Z,0.60
2022-10-23T02:51:58.960Z,0.60
2022-10-23T02:54:43.447Z,0.63
2022-10-23T02:57:20.497Z,0.70
2022-10-23T02:59:57.322Z,0.60
2022-10-23T03:02:27.596Z,0.57
2022-10-23T03:04:59.019Z,0.50
2022-10-23T03:07:27.024Z,0.60
2022-10-23T03:09:54.478Z,0.65
2022-10-23T03:12:21.943Z,0.50
2022-10-23T03:14:50.756Z,0.70
2022-10-23T03:17:18.218Z,0.60
2022-10-23T03:19:45.676Z,0.50
2022-10-23T03:22:13.138Z,0.50
2022-10-23T03:24:40.594Z,0.60
2022-10-23T03:27:08.064Z,0.50
2022-10-23T03:29:35.577Z,0.50
2022-10-23T03:32:04.665Z,0.50
2022-10-23T03:34:32.142Z,0.50
2022-10-23T03:36:59.996Z,0.55
2022-10-23T03:39:27.706Z,0.50
2022-10-23T03:41:55.183Z,0.57
2022-10-23T03:44:22.653Z,0.40
2022-10-23T03:46:50.119Z,0.52
2022-10-23T03:49:18.930Z,0.40
2022-10-23T03:51:51.902Z,0.43
2022-10-23T03:54:21.041Z,0.60
2022-10-23T03:56:49.830Z,0.60
2022-10-23T03:59:18.992Z,0.55
2022-10-23T04:01:46.903Z,0.50
2022-10-23T04:04:15.443Z,0.50
2022-10-23T04:06:44.244Z,0.60
2022-10-23T04:11:40.432Z,0.63
2022-10-23T04:14:07.907Z,0.55
2022-10-23T04:16:35.376Z,0.60
2022-10-23T04:19:03.203Z,0.60
2022-10-23T04:21:30.687Z,0.60
2022-10-23T04:23:59.491Z,0.60
2022-10-23T04:26:26.996Z,0.60
2022-10-23T04:28:54.447Z,0.60
2022-10-23T04:31:22.267Z,0.52
2022-10-23T04:33:49.703Z,0.50
2022-10-23T04:36:17.168Z,0.60
2022-10-23T04:38:44.652Z,0.60
2022-10-23T04:41:13.442Z,0.50
2022-10-23T04:43:40.921Z,0.55
2022-10-23T04:46:08.702Z,0.50
2022-10-23T04:48:36.403Z,0.65
2022-10-23T04:51:05.853Z,0.60
2022-10-23T04:53:34.012Z,0.80
2022-10-23T04:56:01.736Z,0.70
2022-10-23T04:58:30.600Z,0.70
2022-10-23T05:00:58.511Z,0.70
2022-10-23T05:03:26.773Z,0.70
2022-10-23T05:05:56.048Z,0.70
2022-10-23T05:08:23.990Z,0.70
2022-10-23T05:10:51.783Z,0.70
2022-10-23T05:13:20.519Z,0.60
2022-10-23T05:15:50.375Z,0.50
2022-10-23T05:18:21.429Z,0.60
2022-10-23T05:20:51.262Z,0.70
2022-10-23T05:23:21.862Z,0.57
2022-10-23T05:25:49.306Z,0.70
2022-10-23T05:28:16.805Z,0.70
2022-10-23T05:30:44.730Z,0.70
2022-10-23T05:33:13.547Z,0.60
2022-10-23T05:35:43.288Z,0.63
2022-10-23T05:38:11.469Z,0.80
2022-10-23T05:43:11.471Z,1.00
2022-10-23T05:45:38.934Z,0.90
2022-10-23T05:48:17.029Z,0.80
2022-10-23T05:50:51.862Z,0.80
2022-10-23T05:53:19.323Z,0.70
2022-10-23T05:55:46.787Z,0.73
2022-10-23T05:58:14.349Z,0.90
2022-10-23T06:00:41.803Z,0.90
2022-10-23T06:03:09.242Z,0.90
2022-10-23T06:05:36.829Z,0.93
2022-10-23T06:08:05.998Z,0.88
2022-10-23T06:10:33.455Z,1.05
2022-10-23T06:13:00.915Z,1.00
2022-10-23T06:15:28.363Z,1.10
2022-10-23T06:17:55.801Z,0.90
2022-10-23T06:20:26.598Z,1.00
2022-10-23T06:22:56.183Z,1.05
2022-10-23T06:25:24.975Z,1.00
2022-10-23T06:27:52.447Z,0.93
2022-10-23T06:30:19.918Z,1.00
2022-10-23T06:32:47.377Z,1.10
2022-10-23T06:35:14.963Z,0.98
2022-10-23T06:37:42.470Z,1.05
2022-10-23T06:40:10.594Z,1.08
2022-10-23T06:42:39.395Z,1.00
2022-10-23T06:45:08.145Z,0.90
2022-10-23T06:47:35.641Z,1.10
2022-10-23T06:50:03.113Z,1.00
2022-10-23T06:52:46.601Z,1.00
2022-10-23T06:55:15.514Z,1.10
2022-10-23T06:57:45.149Z,1.00
2022-10-23T07:00:14.112Z,1.10
2022-10-23T07:02:41.787Z,1.10
2022-10-23T07:05:14.064Z,1.00
2022-10-23T07:07:41.608Z,1.08
2022-10-23T07:10:09.729Z,1.00
2022-10-23T07:12:37.223Z,0.90
2022-10-23T07:15:07.297Z,0.85
2022-10-23T07:17:34.794Z,0.93
2022-10-23T07:20:02.274Z,0.98
2022-10-23T07:22:29.743Z,0.95
2022-10-23T07:24:57.322Z,0.85
2022-10-23T07:27:25.259Z,0.88
2022-10-23T07:29:56.317Z,0.90
2022-10-23T07:32:28.040Z,0.70
2022-10-23T07:34:55.759Z,0.77
2022-10-23T07:37:23.235Z,0.60
2022-10-23T07:39:50.678Z,0.60
2022-10-23T07:42:18.156Z,0.50
2022-10-23T07:44:45.594Z,0.60
2022-10-23T07:47:13.047Z,0.50
2022-10-23T07:49:42.422Z,0.60
2022-10-23T07:52:09.889Z,0.50
2022-10-23T07:54:37.342Z,0.55
2022-10-23T07:57:04.780Z,0.50
2022-10-23T07:59:37.133Z,0.60
2022-10-23T08:02:05.747Z,0.67
2022-10-23T08:04:33.203Z,0.80
2022-10-23T08:07:02.053Z,0.85
2022-10-23T08:09:29.614Z,0.80
2022-10-23T08:11:57.053Z,1.00
2022-10-23T08:14:24.983Z,0.77
2022-10-23T08:16:52.511Z,0.60
2022-10-23T08:19:20.011Z,0.60
2022-10-23T08:21:47.479Z,0.60
2022-10-23T08:24:16.399Z,0.50
2022-10-23T08:26:43.860Z,0.50
2022-10-23T08:29:11.348Z,0.45
2022-10-23T08:31:38.867Z,0.47
2022-10-23T08:34:06.829Z,0.38
2022-10-23T08:36:36.319Z,0.38
2022-10-23T08:39:03.779Z,0.40
2022-10-23T08:41:35.145Z,0.40
2022-10-23T08:44:13.662Z,0.43
2022-10-23T08:46:45.537Z,0.32
2022-10-23T08:49:25.811Z,0.30
2022-10-23T08:51:56.703Z,0.40
2022-10-23T08:54:29.067Z,0.40
2022-10-23T08:57:03.635Z,0.50
2022-10-23T08:59:37.955Z,0.55
2022-10-23T09:02:16.205Z,0.60
2022-10-23T09:04:47.601Z,0.50
2022-10-23T09:07:26.439Z,0.50
2022-10-23T09:10:04.902Z,0.60
2022-10-23T09:12:34.010Z,0.85
2022-10-23T09:15:08.046Z,0.85
2022-10-23T09:17:37.911Z,0.60
2022-10-23T09:20:14.799Z,0.57
2022-10-23T09:22:43.988Z,0.60
2022-10-23T09:25:12.764Z,0.70
2022-10-23T09:27:48.703Z,0.63
2022-10-23T09:30:30.431Z,0.75
2022-10-23T09:32:58.022Z,0.88
2022-10-23T09:35:28.418Z,0.68
2022-10-23T09:37:57.003Z,0.65
2022-10-23T09:40:33.296Z,0.60
2022-10-23T09:43:04.656Z,0.60
2022-10-23T09:45:34.137Z,0.60
2022-10-23T09:48:13.243Z,0.55
2022-10-23T09:50:49.187Z,0.60
2022-10-23T09:53:19.996Z,0.60
2022-10-23T09:55:53.496Z,0.50
2022-10-23T09:58:32.906Z,0.50
2022-10-23T10:01:00.476Z,0.50
2022-10-23T10:03:28.024Z,0.60
2022-10-23T10:05:58.397Z,0.60
2022-10-23T10:08:33.177Z,0.60
2022-10-23T10:11:04.087Z,0.60
2022-10-23T10:13:53.689Z,0.60
2022-10-23T10:16:28.337Z,0.40
2022-10-23T10:19:04.610Z,0.52
2022-10-23T10:21:40.649Z,0.60
2022-10-23T10:24:17.170Z,0.60
2022-10-23T10:26:53.154Z,0.52
2022-10-23T10:29:38.391Z,0.50
2022-10-23T10:32:21.394Z,0.50
2022-10-23T10:34:56.152Z,0.40
2022-10-23T10:37:35.855Z,0.40
2022-10-23T10:40:14.129Z,0.40
2022-10-23T10:42:55.529Z,0.40
2022-10-23T10:45:33.960Z,0.40
2022-10-23T10:48:25.920Z,0.50
2022-10-23T10:50:59.628Z,0.50
2022-10-23T10:53:34.967Z,0.50
2022-10-23T10:56:05.386Z,0.50
2022-10-23T10:58:39.541Z,0.50
2022-10-23T11:02:15.537Z,0.40
2022-10-23T11:04:48.879Z,0.40
2022-10-23T11:07:23.230Z,0.50
2022-10-23T11:09:51.107Z,0.50
2022-10-23T11:12:21.510Z,0.60
2022-10-23T11:14:50.879Z,0.70
2022-10-23T11:17:25.994Z,0.70
2022-10-23T11:20:02.057Z,0.80
2022-10-23T11:22:36.509Z,0.70
2022-10-23T11:25:34.359Z,0.70
2022-10-23T11:28:29.284Z,0.70
2022-10-23T11:34:04.410Z,0.60
2022-10-23T11:36:43.891Z,0.60
2022-10-23T11:39:25.646Z,0.70
2022-10-23T11:41:56.687Z,0.65
2022-10-23T11:44:42.819Z,0.80
2022-10-23T11:47:35.030Z,0.63
2022-10-23T11:50:24.360Z,0.68
2022-10-23T11:53:24.026Z,0.70
2022-10-23T11:56:00.528Z,0.60
2022-10-23T11:58:32.896Z,0.60
2022-10-23T12:01:06.654Z,0.60
2022-10-23T12:03:42.605Z,0.50
2022-10-23T12:06:24.303Z,0.60
2022-10-23T12:08:55.495Z,0.47
2022-10-23T12:11:42.471Z,0.50
2022-10-23T12:14:32.560Z,0.40
2022-10-23T12:17:01.164Z,0.40
2022-10-23T12:19:49.462Z,0.40
2022-10-23T12:22:20.035Z,0.40
2022-10-23T12:25:01.468Z,0.40
2022-10-23T12:27:39.053Z,0.50
2022-10-23T12:30:20.883Z,0.40
2022-10-23T12:33:19.216Z,0.40
2022-10-23T12:36:08.328Z,0.40
2022-10-23T12:38:45.571Z,0.40
2022-10-23T12:41:16.305Z,0.40
2022-10-23T12:43:45.236Z,0.50
2022-10-23T12:46:33.292Z,0.40
2022-10-23T12:49:03.823Z,0.50
2022-10-23T12:51:33.172Z,0.50
2022-10-23T12:54:03.519Z,0.40
2022-10-23T12:56:37.155Z,0.45
2022-10-23T12:59:09.819Z,0.40
2022-10-23T13:01:40.427Z,0.50
2022-10-23T13:04:22.832Z,0.50
2022-10-23T13:06:51.051Z,0.40
2022-10-23T13:09:25.011Z,0.50
2022-10-23T13:11:53.424Z,0.50
2022-10-23T13:14:38.259Z,0.47
2022-10-23T13:17:09.841Z,0.40
2022-10-23T13:19:38.122Z,0.50
2022-10-23T13:22:21.707Z,0.50
2022-10-23T13:24:50.594Z,0.50
2022-10-23T13:27:33.829Z,0.50
2022-10-23T13:30:01.562Z,0.40
2022-10-23T13:32:31.246Z,0.50
2022-10-23T13:35:16.990Z,0.40
2022-10-23T13:37:48.257Z,0.50
2022-10-23T13:40:24.902Z,0.43
2022-10-23T13:42:53.538Z,0.50
2022-10-23T13:45:23.465Z,0.45
2022-10-23T13:47:51.417Z,0.47
2022-10-23T13:50:19.415Z,0.50
2022-10-23T13:52:46.911Z,0.60
2022-10-23T13:55:21.293Z,0.70
2022-10-23T13:57:50.186Z,0.60
2022-10-23T14:00:18.690Z,0.60
2022-10-23T14:02:46.628Z,0.50
2022-10-23T14:05:17.830Z,0.50
2022-10-23T14:07:45.519Z,0.60
2022-10-23T14:10:13.282Z,0.45
2022-10-23T14:12:42.037Z,0.50
2022-10-23T14:15:12.471Z,0.40
2022-10-23T14:17:40.005Z,0.35
2022-10-23T14:20:08.781Z,0.32
2022-10-23T14:22:36.306Z,0.40
2022-10-23T14:25:03.849Z,0.40
2022-10-23T14:27:31.398Z,0.40
2022-10-23T14:29:59.280Z,0.40
2022-10-23T14:32:28.390Z,0.40
2022-10-23T14:34:55.977Z,0.38
2022-10-23T14:37:23.544Z,0.40
2022-10-23T14:39:51.008Z,0.50
2022-10-23T14:42:20.991Z,0.40
2022-10-23T14:44:49.852Z,0.40
2022-10-23T14:47:18.859Z,0.40
2022-10-23T14:49:50.298Z,0.40
2022-10-23T14:52:17.871Z,0.40
2022-10-23T14:54:45.315Z,0.40
2022-10-23T14:57:16.177Z,0.50
2022-10-23T14:59:43.663Z,0.50
2022-10-23T15:02:12.472Z,0.45
2022-10-23T15:04:40.408Z,0.50
2022-10-23T15:10:49.739Z,0.40
2022-10-23T15:13:17.315Z,0.50
2022-10-23T15:15:45.112Z,0.38
2022-10-23T15:18:12.587Z,0.43
2022-10-23T15:20:40.027Z,0.50
2022-10-23T15:23:07.482Z,0.60
2022-10-23T15:25:34.980Z,0.50
2022-10-23T15:28:03.806Z,0.60
2022-10-23T15:30:31.244Z,0.50
2022-10-23T15:32:58.671Z,0.52
2022-10-23T15:35:26.113Z,0.57
2022-10-23T15:37:53.565Z,0.50
2022-10-23T15:40:21.043Z,0.50
2022-10-23T15:42:50.533Z,0.50
2022-10-23T15:45:19.319Z,0.52
2022-10-23T15:47:46.781Z,0.50
2022-10-23T15:50:14.226Z,0.50
2022-10-23T15:52:42.082Z,0.47
2022-10-23T15:55:11.591Z,0.50
2022-10-23T15:57:39.090Z,0.43
2022-10-23T16:00:08.869Z,0.40
2022-10-23T16:02:37.957Z,0.40
2022-10-23T16:05:06.525Z,0.40
2022-10-23T16:07:33.977Z,0.40
2022-10-23T16:10:01.599Z,0.40
2022-10-23T16:12:29.069Z,0.40
2022-10-23T16:14:56.514Z,0.32
2022-10-23T16:17:24.163Z,0.45
2022-10-23T16:19:52.950Z,0.40
2022-10-23T16:22:20.435Z,0.47
2022-10-23T16:24:47.911Z,0.40
2022-10-23T16:27:15.352Z,0.50
2022-10-23T16:29:42.947Z,0.45
2022-10-23T16:32:10.442Z,0.47
2022-10-23T16:34:37.902Z,0.40
2022-10-23T16:37:06.703Z,0.40
2022-10-23T16:39:36.003Z,0.50
2022-10-23T16:42:03.769Z,0.50
2022-10-23T16:44:31.315Z,0.30
2022-10-23T16:46:58.808Z,0.40
2022-10-23T16:49:26.319Z,0.30
2022-10-23T16:51:53.770Z,0.40
2022-10-23T16:54:22.882Z,0.40
2022-10-23T16:56:51.268Z,0.60
2022-10-23T16:59:18.718Z,0.40
2022-10-23T17:01:46.387Z,0.40
2022-10-23T17:04:13.944Z,0.40
2022-10-23T17:06:41.469Z,0.40
2022-10-23T17:09:09.123Z,0.45
2022-10-23T17:11:39.970Z,0.43
2022-10-23T17:14:09.393Z,0.43
2022-10-23T17:16:39.920Z,0.52
2022-10-23T17:19:20.617Z,0.70
2022-10-23T17:21:55.434Z,0.50
2022-10-23T17:24:23.032Z,0.50
2022-10-23T17:26:52.035Z,0.50
2022-10-23T17:29:19.563Z,0.50
2022-10-23T17:31:49.020Z,0.50
2022-10-23T17:34:19.381Z,0.50
2022-10-23T17:36:49.928Z,0.60
2022-10-23T17:39:19.807Z,0.55
2022-10-23T17:41:47.743Z,0.70
2022-10-23T17:44:16.738Z,0.70
2022-10-23T17:46:44.492Z,0.60
2022-10-23T17:49:13.222Z,0.70
2022-10-23T17:51:40.903Z,0.70
2022-10-23T17:54:11.447Z,0.63
2022-10-23T17:56:40.660Z,0.70
2022-10-23T17:59:10.911Z,0.63
2022-10-23T18:01:40.386Z,0.70
2022-10-23T18:04:09.098Z,0.63
2022-10-23T18:06:41.272Z,0.68
2022-10-23T18:09:08.913Z,0.70
2022-10-23T18:11:42.437Z,0.70
2022-10-23T18:14:12.257Z,0.70
2022-10-23T18:16:41.717Z,0.70
2022-10-23T18:19:10.126Z,0.70
2022-10-23T18:21:37.998Z,0.70
2022-10-23T18:24:06.011Z,0.80
2022-10-23T18:26:37.516Z,0.75
2022-10-23T18:29:07.690Z,0.80
2022-10-23T18:31:37.137Z,0.70
2022-10-23T18:34:08.385Z,0.68
2022-10-23T18:36:38.074Z,0.82
2022-10-23T18:39:07.853Z,0.80
2022-10-23T18:41:37.710Z,0.85
2022-10-23T18:44:06.090Z,0.93
2022-10-23T18:46:33.732Z,0.80
2022-10-23T18:49:01.211Z,0.88
2022-10-23T18:51:32.798Z,0.95
2022-10-23T18:54:01.771Z,0.80
2022-10-23T18:56:29.922Z,0.85
2022-10-23T18:58:59.158Z,0.90
2022-10-23T19:01:27.990Z,0.82
2022-10-23T19:06:32.045Z,0.80
2022-10-23T19:08:59.780Z,0.88
2022-10-23T19:11:29.087Z,0.90
2022-10-23T19:13:56.878Z,0.88
2022-10-23T19:16:28.452Z,0.90
2022-10-23T19:18:59.761Z,0.82
2022-10-23T19:21:31.614Z,0.90
2022-10-23T19:24:02.702Z,0.88
2022-10-23T19:26:31.107Z,0.90
2022-10-23T19:28:58.895Z,0.80
2022-10-23T19:31:28.746Z,0.80
2022-10-23T19:33:56.202Z,0.80
2022-10-23T19:36:23.838Z,0.85
2022-10-23T19:38:51.295Z,0.90
2022-10-23T19:41:20.410Z,0.82
2022-10-23T19:43:47.843Z,0.95
2022-10-23T19:46:16.153Z,0.90
2022-10-23T19:48:44.872Z,1.00
2022-10-23T19:51:13.367Z,0.82
2022-10-23T19:53:42.580Z,1.00
2022-10-23T19:56:12.159Z,0.90
2022-10-23T19:58:41.380Z,0.80
2022-10-23T20:01:11.647Z,1.00
2022-10-23T20:03:39.795Z,0.90
2022-10-23T20:06:10.029Z,1.00
2022-10-23T20:08:38.264Z,0.90
2022-10-23T20:11:06.533Z,0.88
2022-10-23T20:13:34.084Z,0.90
2022-10-23T20:16:03.292Z,0.85
2022-10-23T20:18:30.739Z,1.00
2022-10-23T20:20:58.252Z,0.85
2022-10-23T20:23:25.716Z,0.77
2022-10-23T20:25:53.215Z,0.80
2022-10-23T20:28:21.670Z,0.80
2022-10-23T20:30:49.098Z,0.98
2022-10-23T20:33:17.871Z,0.80
2022-10-23T20:35:45.417Z,0.73
2022-10-23T20:38:12.932Z,0.73
2022-10-23T20:40:40.391Z,0.77
2022-10-23T20:43:07.835Z,0.70
2022-10-23T21:00:12.641Z,0.80
2022-10-23T21:02:40.194Z,0.82
2022-10-23T21:05:08.501Z,0.77
2022-10-23T21:07:35.957Z,0.73
2022-10-23T21:10:04.261Z,0.75
2022-10-23T21:12:32.207Z,0.82
2022-10-23T21:14:59.671Z,0.80
2022-10-23T21:17:29.278Z,0.85
2022-10-23T21:19:56.757Z,0.90
2022-10-23T21:22:24.268Z,0.90
2022-10-23T21:24:51.702Z,0.80
2022-10-23T21:27:19.175Z,0.68
2022-10-23T21:29:46.669Z,0.88
2022-10-23T21:32:14.156Z,0.73
2022-10-23T21:34:43.078Z,0.82
2022-10-23T21:37:13.347Z,0.80
2022-10-23T21:39:42.487Z,0.80
2022-10-23T21:42:10.233Z,0.98
2022-10-23T21:44:38.158Z,0.90
2022-10-23T21:47:06.247Z,0.95
2022-10-23T21:49:33.734Z,1.02
2022-10-23T21:52:02.522Z,1.15
2022-10-23T21:54:30.108Z,1.17
2022-10-23T21:56:57.556Z,1.10
2022-10-23T21:59:30.090Z,1.27
2022-10-23T22:01:59.237Z,1.20
2022-10-23T22:04:26.923Z,1.13
2022-10-23T22:06:54.852Z,1.05
2022-10-23T22:09:24.492Z,0.93
2022-10-23T22:11:53.181Z,1.20
2022-10-23T22:14:20.958Z,1.08
2022-10-23T22:16:48.479Z,1.00
2022-10-23T22:19:17.944Z,1.10
2022-10-23T22:21:45.919Z,0.98
2022-10-23T22:24:13.415Z,0.98
2022-10-23T22:26:44.966Z,1.02
2022-10-23T22:29:14.127Z,1.05
2022-10-23T22:31:45.502Z,1.10
2022-10-23T22:34:40.797Z,0.90
2022-10-23T22:37:07.574Z,0.93
2022-10-23T22:39:35.067Z,0.80
2022-10-23T22:42:03.928Z,0.77
2022-10-23T22:44:31.405Z,0.77
2022-10-23T22:46:58.849Z,0.70
2022-10-23T22:49:26.474Z,0.73
2022-10-23T22:51:53.971Z,0.75
2022-10-23T22:54:21.421Z,0.70
2022-10-23T22:56:48.858Z,0.60
2022-10-23T22:59:17.670Z,0.65
2022-10-23T23:01:47.389Z,0.73
2022-10-23T23:04:36.686Z,0.68
2022-10-23T23:07:05.180Z,0.60
2022-10-23T23:09:32.658Z,0.80
2022-10-23T23:12:00.097Z,0.57
2022-10-23T23:14:28.864Z,0.70
2022-10-23T23:16:59.687Z,0.60
2022-10-23T23:19:28.409Z,0.52
2022-10-23T23:21:56.583Z,0.50
2022-10-23T23:24:24.231Z,0.55
2022-10-23T23:26:51.798Z,0.60
2022-10-23T23:29:19.988Z,0.50
2022-10-23T23:31:48.764Z,0.50
2022-10-23T23:34:16.295Z,0.50
2022-10-23T23:36:43.734Z,0.47
2022-10-23T23:39:11.722Z,0.55
2022-10-23T23:41:39.192Z,0.60
2022-10-23T23:44:08.276Z,0.63
2022-10-23T23:46:35.810Z,0.75
2022-10-23T23:49:04.606Z,0.70
2022-10-23T23:51:32.053Z,0.73
2022-10-23T23:53:59.501Z,0.77
2022-10-23T23:56:27.998Z,0.80
2022-10-23T23:58:55.534Z,0.82
